createdAt,value
2022-08-05T00:01:36.587Z,47.04
2022-08-05T00:04:17.810Z,46.94
2022-08-05T00:06:45.444Z,46.92
2022-08-05T00:09:15.977Z,46.92
2022-08-05T00:11:49.105Z,46.72
2022-08-05T00:14:22.620Z,46.70
2022-08-05T00:16:54.939Z,46.77
2022-08-05T00:19:40.604Z,46.73
2022-08-05T00:22:11.830Z,46.78
2022-08-05T00:24:42.162Z,46.75
2022-08-05T00:27:10.510Z,46.60
2022-08-05T00:29:41.269Z,46.80
2022-08-05T00:32:15.473Z,46.79
2022-08-05T00:35:05.542Z,46.73
2022-08-05T00:37:50.283Z,46.65
2022-08-05T00:40:26.767Z,46.71
2022-08-05T00:42:57.521Z,46.73
2022-08-05T00:45:28.043Z,46.94
2022-08-05T00:48:06.213Z,46.72
2022-08-05T00:50:34.092Z,46.96
2022-08-05T00:53:01.588Z,46.90
2022-08-05T00:55:34.053Z,46.80
2022-08-05T00:58:14.485Z,46.70
2022-08-05T01:00:42.220Z,46.86
2022-08-05T01:03:22.400Z,46.91
2022-08-05T01:05:54.544Z,46.90
2022-08-05T01:08:30.789Z,46.77
2022-08-05T01:11:36.783Z,46.72
2022-08-05T01:14:17.844Z,46.71
2022-08-05T01:17:05.592Z,46.89
2022-08-05T01:20:01.440Z,46.86
2022-08-05T01:22:48.291Z,46.86
2022-08-05T01:25:40.668Z,46.75
2022-08-05T01:28:17.053Z,46.76
2022-08-05T01:30:53.606Z,46.71
2022-08-05T01:33:25.389Z,46.55
2022-08-05T01:35:57.623Z,46.50
2022-08-05T01:38:27.040Z,46.35
2022-08-05T01:41:01.470Z,46.31
2022-08-05T01:43:29.300Z,46.24
2022-08-05T01:45:57.583Z,46.15
2022-08-05T01:48:28.609Z,46.13
2022-08-05T01:50:56.416Z,45.98
2022-08-05T01:53:54.900Z,45.89
2022-08-05T01:56:12.222Z,45.72
2022-08-05T01:58:44.840Z,45.59
2022-08-05T02:01:23.251Z,45.66
2022-08-05T02:03:53.548Z,45.55
2022-08-05T02:06:33.623Z,45.84
2022-08-05T02:09:06.239Z,45.57
2022-08-05T02:11:42.106Z,45.40
2022-08-05T02:14:12.993Z,45.44
2022-08-05T02:16:45.921Z,45.35
2022-08-05T02:19:26.430Z,45.30
2022-08-05T02:22:04.630Z,45.48
2022-08-05T02:24:38.193Z,45.57
2022-08-05T02:27:09.980Z,45.43
2022-08-05T02:29:59.009Z,45.57
2022-08-05T02:32:31.437Z,45.41
2022-08-05T02:35:14.098Z,45.74
2022-08-05T02:37:47.628Z,45.59
2022-08-05T02:40:16.902Z,45.74
2022-08-05T02:42:45.018Z,45.56
2022-08-05T02:45:20.719Z,45.58
2022-08-05T02:48:06.918Z,45.59
2022-08-05T02:50:44.340Z,45.95
2022-08-05T02:53:18.939Z,45.97
2022-08-05T02:58:26.583Z,46.03
2022-08-05T03:00:59.566Z,46.13
2022-08-05T03:03:33.530Z,46.63
2022-08-05T03:06:56.940Z,46.69
2022-08-05T03:08:52.138Z,46.60
2022-08-05T03:11:56.128Z,46.64
2022-08-05T03:14:08.597Z,46.79
2022-08-05T03:16:39.947Z,47.14
2022-08-05T03:19:16.932Z,47.33
2022-08-05T03:21:53.902Z,47.25
2022-08-05T03:24:27.534Z,47.43
2022-08-05T03:26:56.858Z,47.40
2022-08-05T03:29:24.406Z,47.38
2022-08-05T03:32:12.228Z,47.27
2022-08-05T03:34:47.238Z,47.32
2022-08-05T03:37:20.114Z,47.13
2022-08-05T03:39:59.080Z,46.73
2022-08-05T03:42:29.034Z,46.59
2022-08-05T03:44:58.840Z,46.40
2022-08-05T03:47:30.290Z,46.13
2022-08-05T03:49:58.101Z,45.94
2022-08-05T03:52:38.087Z,45.60
2022-08-05T03:56:05.391Z,45.41
2022-08-05T03:58:12.951Z,44.88
2022-08-05T04:00:41.917Z,44.53
2022-08-05T04:03:15.033Z,44.04
2022-08-05T04:05:57.661Z,43.64
2022-08-05T04:08:35.132Z,43.46
2022-08-05T04:11:07.323Z,42.60
2022-08-05T04:13:50.564Z,42.31
2022-08-05T04:16:24.890Z,41.84
2022-08-05T04:18:54.906Z,41.38
2022-08-05T04:22:08.894Z,40.85
2022-08-05T04:24:18.895Z,40.25
2022-08-05T04:26:49.187Z,39.64
2022-08-05T04:29:16.089Z,39.66
2022-08-05T04:31:43.154Z,39.24
2022-08-05T04:34:19.726Z,39.08
2022-08-05T04:36:57.166Z,38.80
2022-08-05T04:39:24.402Z,38.48
2022-08-05T04:41:54.480Z,38.29
2022-08-05T04:44:29.549Z,37.74
2022-08-05T04:47:09.726Z,37.93
2022-08-05T04:50:01.402Z,37.61
2022-08-05T04:52:27.374Z,37.52
2022-08-05T04:54:57.238Z,37.10
2022-08-05T04:57:29.096Z,37.20
2022-08-05T04:59:58.630Z,37.11
2022-08-05T05:02:41.353Z,37.35
2022-08-05T05:05:16.626Z,37.54
2022-08-05T05:08:02.852Z,37.56
2022-08-05T05:10:33.231Z,37.88
2022-08-05T05:13:01.709Z,38.06
2022-08-05T05:15:57.847Z,38.13
2022-08-05T05:18:31.405Z,38.25
2022-08-05T05:21:00.780Z,38.40
2022-08-05T05:23:39.284Z,38.43
2022-08-05T05:26:14.619Z,38.30
2022-08-05T05:28:42.832Z,38.28
2022-08-05T05:31:12.502Z,38.42
2022-08-05T05:33:57.064Z,38.31
2022-08-05T05:36:28.388Z,38.35
2022-08-05T05:38:57.760Z,38.21
2022-08-05T05:41:24.886Z,38.38
2022-08-05T05:43:58.531Z,38.20
2022-08-05T05:46:27.622Z,38.47
2022-08-05T05:48:54.596Z,38.32
2022-08-05T05:51:22.772Z,38.67
2022-08-05T05:53:58.147Z,38.50
2022-08-05T05:56:34.695Z,38.33
2022-08-05T05:59:07.367Z,38.84
2022-08-05T06:01:40.121Z,38.52
2022-08-05T06:04:12.242Z,38.53
2022-08-05T06:06:42.114Z,38.28
2022-08-05T06:09:17.602Z,38.35
2022-08-05T06:12:00.012Z,38.33
2022-08-05T06:14:34.662Z,38.27
2022-08-05T06:17:32.024Z,38.26
2022-08-05T06:19:57.093Z,38.15
2022-08-05T06:22:29.639Z,38.11
2022-08-05T06:24:57.002Z,38.15
2022-08-05T06:28:11.134Z,37.98
2022-08-05T06:30:17.880Z,37.76
2022-08-05T06:32:48.446Z,37.65
2022-08-05T06:36:04.052Z,37.56
2022-08-05T06:38:11.202Z,37.28
2022-08-05T06:40:42.070Z,37.24
2022-08-05T06:43:58.277Z,37.00
2022-08-05T06:46:03.881Z,37.12
2022-08-05T06:48:54.747Z,36.88
2022-08-05T06:51:29.826Z,36.80
2022-08-05T06:53:59.554Z,36.61
2022-08-05T06:56:28.059Z,36.59
2022-08-05T06:58:55.791Z,36.51
2022-08-05T07:01:23.588Z,36.38
2022-08-05T07:03:54.810Z,36.18
2022-08-05T07:06:23.288Z,36.06
2022-08-05T07:08:51.687Z,36.35
2022-08-05T07:11:25.200Z,35.98
2022-08-05T07:14:20.249Z,35.97
2022-08-05T07:17:58.540Z,35.99
2022-08-05T07:20:31.709Z,35.49
2022-08-05T07:22:33.796Z,35.39
2022-08-05T07:25:21.779Z,35.36
2022-08-05T07:27:58.206Z,35.83
2022-08-05T07:30:38.693Z,35.59
2022-08-05T07:33:10.670Z,35.76
2022-08-05T07:36:01.625Z,35.19
2022-08-05T07:38:33.271Z,35.55
2022-08-05T07:42:06.763Z,35.08
2022-08-05T07:43:51.626Z,35.05
2022-08-05T07:46:25.121Z,35.24
2022-08-05T07:49:01.711Z,35.08
2022-08-05T07:51:48.516Z,34.64
2022-08-05T07:54:26.628Z,34.90
2022-08-05T07:57:14.690Z,34.41
2022-08-05T07:59:44.634Z,34.42
2022-08-05T08:02:16.406Z,34.20
2022-08-05T08:04:49.363Z,34.28
2022-08-05T08:07:22.678Z,34.52
2022-08-05T08:09:52.413Z,34.53
2022-08-05T08:12:35.397Z,33.96
2022-08-05T08:15:15.572Z,34.21
2022-08-05T08:17:52.540Z,33.55
2022-08-05T08:20:59.740Z,33.65
2022-08-05T08:24:00.309Z,33.69
2022-08-05T08:26:02.459Z,33.44
2022-08-05T08:28:37.335Z,33.45
2022-08-05T08:31:09.840Z,33.33
2022-08-05T08:33:43.750Z,33.35
2022-08-05T08:36:38.235Z,33.25
2022-08-05T08:38:58.255Z,33.16
2022-08-05T08:41:51.180Z,33.11
2022-08-05T08:45:18.027Z,33.15
2022-08-05T08:47:22.334Z,32.77
2022-08-05T08:50:05.875Z,32.40
2022-08-05T08:52:51.644Z,32.82
2022-08-05T08:56:02.150Z,32.65
2022-08-05T08:58:09.997Z,32.69
2022-08-05T09:00:41.839Z,32.41
2022-08-05T09:03:10.666Z,32.48
2022-08-05T09:05:38.355Z,32.38
2022-08-05T09:08:27.240Z,32.00
2022-08-05T09:10:57.816Z,32.22
2022-08-05T09:13:24.881Z,31.78
2022-08-05T09:15:58.815Z,31.78
2022-08-05T09:18:25.876Z,31.87
2022-08-05T09:20:53.203Z,31.47
2022-08-05T09:23:21.701Z,31.34
2022-08-05T09:26:02.755Z,31.46
2022-08-05T09:28:34.731Z,31.16
2022-08-05T09:31:22.387Z,31.46
2022-08-05T09:34:01.293Z,31.32
2022-08-05T09:36:54.493Z,30.91
2022-08-05T09:39:27.594Z,31.15
2022-08-05T09:42:13.637Z,30.73
2022-08-05T09:44:46.088Z,30.76
2022-08-05T09:47:34.919Z,30.54
2022-08-05T09:50:18.136Z,30.28
2022-08-05T09:53:01.061Z,30.10
2022-08-05T09:55:57.214Z,29.89
2022-08-05T09:58:15.930Z,29.43
2022-08-05T10:00:53.541Z,29.45
2022-08-05T10:03:21.389Z,29.45
2022-08-05T10:06:05.964Z,29.11
2022-08-05T10:08:42.477Z,29.50
2022-08-05T10:11:17.065Z,28.89
2022-08-05T10:13:48.050Z,28.93
2022-08-05T10:16:37.852Z,29.17
2022-08-05T10:19:23.715Z,29.06
2022-08-05T10:22:08.097Z,29.10
2022-08-05T10:24:39.776Z,29.01
2022-08-05T10:27:07.583Z,29.19
2022-08-05T10:30:41.464Z,29.11
2022-08-05T10:32:55.702Z,29.32
2022-08-05T10:35:11.270Z,29.11
2022-08-05T10:37:44.686Z,29.03
2022-08-05T10:40:21.883Z,28.90
2022-08-05T10:43:01.271Z,28.76
2022-08-05T10:45:39.833Z,28.81
2022-08-05T10:48:36.041Z,28.72
2022-08-05T10:51:22.178Z,28.60
2022-08-05T10:53:58.472Z,28.57
2022-08-05T10:56:44.277Z,28.42
2022-08-05T11:00:02.043Z,28.24
2022-08-05T11:02:14.622Z,28.21
2022-08-05T11:04:56.456Z,28.03
2022-08-05T11:07:33.049Z,27.97
2022-08-05T11:10:23.119Z,27.80
2022-08-05T11:12:56.093Z,27.80
2022-08-05T11:16:00.642Z,27.74
2022-08-05T11:18:32.491Z,27.74
2022-08-05T11:21:06.391Z,27.58
2022-08-05T11:24:02.579Z,27.49
2022-08-05T11:26:33.013Z,27.19
2022-08-05T11:29:11.473Z,27.24
2022-08-05T11:31:57.202Z,27.12
2022-08-05T11:34:50.985Z,27.06
2022-08-05T11:38:29.839Z,27.23
2022-08-05T11:41:01.781Z,27.21
2022-08-05T11:44:04.896Z,27.10
2022-08-05T11:46:58.607Z,26.92
2022-08-05T11:49:39.666Z,26.97
2022-08-05T11:52:11.761Z,26.70
2022-08-05T11:54:41.369Z,26.57
2022-08-05T11:57:24.966Z,26.93
2022-08-05T12:14:43.292Z,26.88
2022-08-05T12:18:00.674Z,26.81
2022-08-05T12:20:26.825Z,26.86
2022-08-05T12:22:49.455Z,26.53
2022-08-05T12:25:18.962Z,26.48
2022-08-05T12:27:52.983Z,26.51
2022-08-05T12:30:22.494Z,26.48
2022-08-05T12:32:58.764Z,26.30
2022-08-05T12:35:37.144Z,26.34
2022-08-05T12:38:07.315Z,26.32
2022-08-05T12:40:38.004Z,26.33
2022-08-05T12:43:10.954Z,26.10
2022-08-05T12:45:49.544Z,26.23
2022-08-05T12:48:27.510Z,26.08
2022-08-05T12:52:10.921Z,26.21
2022-08-05T12:54:16.571Z,25.86
2022-08-05T12:56:48.277Z,26.21
2022-08-05T12:59:27.789Z,26.19
2022-08-05T13:02:12.229Z,26.07
2022-08-05T13:04:54.612Z,26.02
2022-08-05T13:07:57.518Z,25.88
2022-08-05T13:10:19.715Z,26.12
2022-08-05T13:12:57.736Z,25.79
2022-08-05T13:15:41.096Z,25.63
2022-08-05T13:18:10.104Z,26.00
2022-08-05T13:20:40.472Z,25.74
2022-08-05T13:23:08.194Z,25.59
2022-08-05T13:25:51.720Z,25.63
2022-08-05T13:28:22.466Z,25.47
2022-08-05T13:30:51.100Z,25.79
2022-08-05T13:34:21.194Z,25.65
2022-08-05T13:36:09.284Z,25.71
2022-08-05T13:38:41.960Z,25.35
2022-08-05T13:41:11.852Z,25.58
2022-08-05T13:43:44.682Z,25.40
2022-08-05T13:46:37.887Z,25.27
2022-08-05T13:49:11.789Z,25.50
2022-08-05T13:51:46.067Z,24.97
2022-08-05T13:54:16.666Z,25.19
2022-08-05T13:56:50.750Z,24.91
2022-08-05T13:59:23.965Z,24.98
2022-08-05T14:01:57.994Z,24.66
2022-08-05T14:04:55.814Z,24.69
2022-08-05T14:07:59.576Z,24.58
2022-08-05T14:10:18.735Z,24.48
2022-08-05T14:12:48.687Z,24.49
2022-08-05T14:16:05.681Z,24.63
2022-08-05T14:18:04.986Z,24.57
2022-08-05T14:20:32.365Z,24.42
2022-08-05T14:23:00.101Z,24.26
2022-08-05T14:25:30.486Z,24.41
2022-08-05T14:27:58.417Z,24.42
2022-08-05T14:30:31.709Z,24.48
2022-08-05T14:32:58.976Z,24.81
2022-08-05T14:35:37.087Z,24.46
2022-08-05T14:38:27.799Z,24.73
2022-08-05T14:41:01.444Z,24.73
2022-08-05T14:43:58.883Z,24.81
2022-08-05T14:46:17.677Z,24.85
2022-08-05T14:48:49.213Z,24.98
2022-08-05T14:51:17.928Z,25.07
2022-08-05T14:53:45.901Z,25.26
2022-08-05T14:56:34.134Z,24.97
2022-08-05T14:59:05.391Z,25.25
2022-08-05T15:01:47.848Z,25.00
2022-08-05T15:04:20.625Z,25.10
2022-08-05T15:06:50.905Z,25.17
2022-08-05T15:09:51.865Z,25.14
2022-08-05T15:12:26.321Z,25.35
2022-08-05T15:14:54.242Z,25.45
2022-08-05T15:17:47.412Z,25.35
2022-08-05T15:20:18.464Z,25.44
2022-08-05T15:22:54.017Z,25.62
2022-08-05T15:25:51.424Z,25.42
2022-08-05T15:28:14.253Z,25.73
2022-08-05T15:30:43.786Z,25.49
2022-08-05T15:33:13.152Z,25.70
2022-08-05T15:36:00.059Z,25.68
2022-08-05T15:38:36.501Z,26.43
2022-08-05T15:41:22.464Z,27.05
2022-08-05T15:43:55.352Z,27.62
2022-08-05T15:46:24.308Z,28.39
2022-08-05T15:48:58.931Z,28.79
2022-08-05T15:52:09.722Z,29.31
2022-08-05T15:54:34.713Z,29.79
2022-08-05T15:57:02.480Z,30.43
2022-08-05T15:59:29.379Z,30.72
2022-08-05T16:01:56.624Z,31.07
2022-08-05T16:04:27.996Z,31.70
2022-08-05T16:06:55.531Z,31.66
2022-08-05T16:09:23.637Z,32.28
2022-08-05T16:11:53.766Z,32.14
2022-08-05T16:14:22.337Z,32.37
2022-08-05T16:16:50.154Z,32.82
2022-08-05T16:19:25.459Z,33.04
2022-08-05T16:22:05.227Z,33.35
2022-08-05T16:24:39.777Z,33.58
2022-08-05T16:27:09.432Z,34.02
2022-08-05T16:29:37.506Z,33.94
2022-08-05T16:32:09.826Z,34.29
2022-08-05T16:34:39.324Z,34.51
2022-08-05T16:38:02.812Z,34.75
2022-08-05T16:40:04.650Z,34.95
2022-08-05T16:42:34.658Z,35.16
2022-08-05T16:46:05.421Z,35.44
2022-08-05T16:47:54.903Z,35.64
2022-08-05T16:50:25.599Z,35.88
2022-08-05T16:52:52.785Z,36.14
2022-08-05T16:55:23.500Z,36.37
2022-08-05T16:58:00.460Z,36.54
2022-08-05T17:00:34.286Z,36.82
2022-08-05T17:03:19.593Z,36.98
2022-08-05T17:05:59.432Z,37.46
2022-08-05T17:08:36.114Z,38.11
2022-08-05T17:11:18.930Z,38.35
2022-08-05T17:13:50.044Z,38.87
2022-08-05T17:16:32.872Z,39.57
2022-08-05T17:19:07.815Z,39.91
2022-08-05T17:21:39.520Z,40.56
2022-08-05T17:24:19.457Z,41.05
2022-08-05T17:27:01.171Z,41.47
2022-08-05T17:29:33.931Z,42.03
2022-08-05T17:32:17.366Z,42.05
2022-08-05T17:34:58.182Z,42.65
2022-08-05T17:37:40.089Z,42.99
2022-08-05T17:40:12.675Z,43.45
2022-08-05T17:42:49.876Z,43.60
2022-08-05T17:45:21.925Z,43.95
2022-08-05T17:47:55.427Z,44.26
2022-08-05T17:50:30.376Z,44.50
2022-08-05T17:52:59.493Z,44.61
2022-08-05T17:55:37.570Z,45.01
2022-08-05T17:58:14.429Z,45.41
2022-08-05T18:00:47.465Z,45.83
2022-08-05T18:03:39.315Z,46.92
2022-08-05T18:06:11.145Z,47.79
2022-08-05T18:08:45.036Z,48.86
2022-08-05T18:11:24.390Z,50.03
2022-08-05T18:13:56.990Z,50.93
2022-08-05T18:16:26.801Z,51.94
2022-08-05T18:18:54.004Z,52.76
2022-08-05T18:21:22.868Z,53.75
2022-08-05T18:23:54.337Z,54.19
2022-08-05T18:26:27.552Z,55.00
2022-08-05T18:28:57.259Z,55.80
2022-08-05T18:31:24.349Z,56.64
2022-08-05T18:33:52.514Z,57.04
2022-08-05T18:36:19.817Z,57.53
2022-08-05T18:38:55.679Z,58.45
2022-08-05T18:41:57.879Z,58.78
2022-08-05T18:44:10.828Z,59.39
2022-08-05T18:46:41.026Z,59.82
2022-08-05T18:49:30.332Z,60.31
2022-08-05T18:52:16.401Z,60.71
2022-08-05T18:54:45.938Z,61.13
2022-08-05T18:57:15.543Z,61.51
2022-08-05T19:00:01.822Z,61.85
2022-08-05T19:02:30.208Z,62.02
2022-08-05T19:05:02.225Z,62.54
2022-08-05T19:07:50.514Z,62.87
2022-08-05T19:10:28.001Z,63.00
2022-08-05T19:12:57.217Z,63.24
2022-08-05T19:15:57.718Z,63.61
2022-08-05T19:18:21.949Z,63.82
2022-08-05T19:20:54.613Z,64.26
2022-08-05T19:24:08.197Z,64.54
2022-08-05T19:26:11.983Z,64.74
2022-08-05T19:28:43.215Z,64.95
2022-08-05T19:31:13.566Z,65.45
2022-08-05T19:33:48.350Z,65.51
2022-08-05T19:36:26.415Z,65.82
2022-08-05T19:39:00.621Z,65.94
2022-08-05T19:42:06.460Z,66.25
2022-08-05T19:44:19.005Z,66.33
2022-08-05T19:46:46.519Z,66.51
2022-08-05T19:49:17.118Z,66.79
2022-08-05T19:52:19.669Z,66.88
2022-08-05T19:54:34.361Z,67.22
2022-08-05T19:57:09.444Z,67.19
2022-08-05T20:00:01.334Z,67.35
2022-08-05T20:02:31.526Z,67.67
2022-08-05T20:04:59.795Z,67.87
2022-08-05T20:07:47.182Z,68.12
2022-08-05T20:10:17.102Z,68.48
2022-08-05T20:12:48.990Z,68.68
2022-08-05T20:15:48.928Z,69.02
2022-08-05T20:18:10.505Z,69.24
2022-08-05T20:21:00.958Z,69.55
2022-08-05T20:23:39.585Z,69.68
2022-08-05T20:26:24.889Z,70.00
2022-08-05T20:28:55.763Z,70.10
2022-08-05T20:31:28.571Z,70.47
2022-08-05T20:34:09.468Z,70.71
2022-08-05T20:36:36.896Z,70.89
2022-08-05T20:39:06.301Z,71.00
2022-08-05T20:41:43.805Z,71.21
2022-08-05T20:44:19.101Z,71.43
2022-08-05T20:46:59.199Z,71.63
2022-08-05T20:49:26.801Z,71.68
2022-08-05T20:51:57.534Z,72.18
2022-08-05T20:54:42.673Z,72.12
2022-08-05T20:57:11.170Z,72.23
2022-08-05T21:00:11.203Z,72.48
2022-08-05T21:02:29.296Z,72.63
2022-08-05T21:04:56.407Z,72.75
2022-08-05T21:07:24.614Z,72.84
2022-08-05T21:10:13.866Z,73.06
2022-08-05T21:12:40.941Z,73.27
2022-08-05T21:15:25.533Z,73.34
2022-08-05T21:18:01.259Z,73.54
2022-08-05T21:20:32.706Z,73.50
2022-08-05T21:23:00.852Z,73.82
2022-08-05T21:25:33.758Z,73.79
2022-08-05T21:28:03.213Z,73.91
2022-08-05T21:30:31.466Z,73.83
2022-08-05T21:32:58.707Z,74.03
2022-08-05T21:35:30.343Z,74.21
2022-08-05T21:38:12.965Z,74.14
2022-08-05T21:40:41.522Z,74.30
2022-08-05T21:43:17.848Z,74.26
2022-08-05T21:45:57.642Z,74.33
2022-08-05T21:48:28.548Z,74.37
2022-08-05T21:50:56.198Z,74.29
2022-08-05T21:53:27.318Z,74.48
2022-08-05T21:56:06.359Z,74.29
2022-08-05T21:58:57.037Z,74.34
2022-08-05T22:01:25.008Z,74.34
2022-08-05T22:03:53.645Z,74.25
2022-08-05T22:06:22.789Z,74.41
2022-08-05T22:08:51.995Z,74.40
2022-08-05T22:11:34.800Z,74.45
2022-08-05T22:14:20.002Z,74.47
2022-08-05T22:16:56.052Z,74.52
2022-08-05T22:20:01.835Z,74.55
2022-08-05T22:22:14.436Z,74.58
2022-08-05T22:25:01.890Z,74.73
2022-08-05T22:28:08.608Z,74.59
2022-08-05T22:30:35.307Z,74.75
2022-08-05T22:33:15.606Z,74.73
2022-08-05T22:35:49.174Z,74.84
2022-08-05T22:38:18.882Z,74.92
2022-08-05T22:40:49.635Z,74.87
2022-08-05T22:43:36.713Z,75.00
2022-08-05T22:46:13.574Z,75.09
2022-08-05T22:48:50.749Z,75.05
2022-08-05T22:51:23.151Z,75.26
2022-08-05T22:53:57.409Z,75.17
2022-08-05T22:56:29.857Z,75.37
2022-08-05T22:59:03.144Z,75.39
2022-08-05T23:02:04.782Z,75.38
2022-08-05T23:04:19.342Z,75.39
2022-08-05T23:06:46.220Z,75.42
2022-08-05T23:09:27.462Z,75.56
2022-08-05T23:12:02.284Z,75.61
2022-08-05T23:14:32.007Z,75.54
2022-08-05T23:17:24.576Z,75.49
2022-08-05T23:20:02.751Z,75.55
2022-08-05T23:22:31.011Z,75.49
2022-08-05T23:24:58.394Z,75.58
2022-08-05T23:27:28.856Z,75.48
2022-08-05T23:29:58.659Z,75.53
2022-08-05T23:32:27.078Z,75.56
2022-08-05T23:34:54.342Z,75.52
2022-08-05T23:37:21.384Z,75.47
2022-08-05T23:39:54.622Z,75.55
2022-08-05T23:42:23.464Z,75.61
2022-08-05T23:44:56.598Z,75.50
2022-08-05T23:47:25.005Z,75.56
2022-08-05T23:49:55.651Z,75.70
2022-08-05T23:52:27.753Z,75.68
2022-08-05T23:55:01.331Z,75.63
2022-08-05T23:57:28.697Z,75.65
